Time;durP1;ratioP1;P1;durP2;ratioP2;P2;SDS_P1;SDS_P2;PMS_P1;PMS_P2;Temp;Humidity;BMP_temperature;BMP_pressure;BME280_temperature;BME280_humidity;BME280_pressure;Samples;Min_cycle;Max_cycle;Signal;HPM_P1;HPM_P2
2023/01/09 00:00:13;;;;;;;0.30;0.30;;;;;;;13.68;66.23;99321.91;5005711;28;20486;-72
2023/01/09 00:02:39;;;;;;;0.30;0.30;;;;;;;13.96;64.68;99327.31;5011053;28;20042;-71
2023/01/09 00:05:07;;;;;;;0.30;0.30;;;;;;;13.91;65.41;99340.06;5010875;28;20101;-71
2023/01/09 00:07:32;;;;;;;0.30;0.30;;;;;;;13.87;65.93;99349.81;5011312;28;20046;-70
2023/01/09 00:09:58;;;;;;;0.20;0.20;;;;;;;13.65;66.54;99342.16;5010837;28;20052;-72
2023/01/09 00:12:23;;;;;;;0.20;0.20;;;;;;;13.88;65.87;99346.81;5011951;28;20033;-72
2023/01/09 00:14:49;;;;;;;0.40;0.40;;;;;;;13.44;67.17;99354.19;5010989;28;20034;-71
2023/01/09 00:17:14;;;;;;;0.20;0.20;;;;;;;13.21;67.89;99366.44;5011159;28;20137;-71
2023/01/09 00:19:39;;;;;;;0.30;0.30;;;;;;;13.36;67.59;99364.75;5010883;28;20401;-72
2023/01/09 00:22:05;;;;;;;0.40;0.40;;;;;;;13.27;67.87;99363.75;4993165;28;20085;-72
2023/01/09 00:24:31;;;;;;;0.20;0.20;;;;;;;13.63;66.90;99359.72;5011313;28;20032;-70
2023/01/09 00:26:56;;;;;;;0.30;0.30;;;;;;;14.12;64.62;99360.38;5013888;28;20042;-72
2023/01/09 00:29:22;;;;;;;0.30;0.30;;;;;;;13.80;65.45;99363.63;5011256;28;20498;-72
2023/01/09 00:31:47;;;;;;;0.10;0.10;;;;;;;14.20;64.81;99361.66;5010780;28;20125;-73
2023/01/09 00:34:12;;;;;;;0.20;0.20;;;;;;;13.20;67.44;99372.94;5011533;28;20046;-70
2023/01/09 00:36:38;;;;;;;0.20;0.20;;;;;;;13.83;66.38;99373.06;5011697;28;20048;-72
2023/01/09 00:39:04;;;;;;;0.20;0.20;;;;;;;13.74;66.11;99369.34;5011309;28;20061;-71
2023/01/09 00:41:48;;;;;;;0.20;0.20;;;;;;;13.39;67.88;99378.47;5011230;28;20121;-71
2023/01/09 00:44:25;;;;;;;0.10;0.10;;;;;;;13.66;66.44;99368.03;5011309;28;20430;-72
2023/01/09 00:47:06;;;;;;;0.20;0.20;;;;;;;13.62;67.07;99363.50;5011388;28;20510;-71
2023/01/09 00:49:34;;;;;;;0.20;0.20;;;;;;;12.78;69.88;99367.16;5010849;28;20038;-71
2023/01/09 00:52:01;;;;;;;0.35;0.35;;;;;;;12.50;70.42;99372.38;5011412;28;20073;-70
2023/01/09 00:54:29;;;;;;;1.13;0.30;;;;;;;12.91;69.39;99369.25;5011999;28;20028;-71
2023/01/09 00:56:55;;;;;;;0.20;0.20;;;;;;;13.20;68.26;99364.03;5011238;28;20193;-71
2023/01/09 00:59:21;;;;;;;0.40;0.40;;;;;;;13.39;67.04;99373.09;5011550;28;20050;-71
2023/01/09 01:01:46;;;;;;;0.40;0.40;;;;;;;12.71;69.27;99379.31;5011054;28;20049;-72
2023/01/09 01:09:40;;;;;;;0.20;0.20;;;;;;;12.34;70.57;99382.38;5011720;28;20049;-71
2023/01/09 01:12:05;;;;;;;0.30;0.30;;;;;;;12.58;69.40;99378.00;5011128;28;20402;-71
2023/01/09 01:14:33;;;;;;;0.20;0.20;;;;;;;13.54;66.18;99381.06;5011025;28;20037;-71
2023/01/09 01:16:59;;;;;;;0.22;0.22;;;;;;;12.72;68.48;99380.91;4990033;28;20062;-71
2023/01/09 01:19:24;;;;;;;0.22;0.22;;;;;;;12.50;69.68;99381.25;4991397;28;20058;-71
2023/01/09 01:21:50;;;;;;;0.50;0.50;;;;;;;12.50;69.37;99381.25;4992505;28;20048;-70
2023/01/09 01:24:18;;;;;;;0.22;0.22;;;;;;;12.71;68.76;99387.41;4991601;28;20042;-72
2023/01/09 01:26:44;;;;;;;0.20;0.20;;;;;;;12.45;68.77;99399.31;4989831;28;20041;-71
2023/01/09 01:29:09;;;;;;;0.30;0.30;;;;;;;12.62;68.47;99397.91;4991243;28;20038;-73
2023/01/09 01:31:35;;;;;;;0.30;0.30;;;;;;;12.02;70.02;99393.44;5010039;28;20532;-70
2023/01/09 01:34:01;;;;;;;0.30;0.30;;;;;;;11.91;71.08;99394.50;5010527;28;20038;-71
2023/01/09 01:36:26;;;;;;;0.30;0.30;;;;;;;12.49;69.20;99400.38;5028685;28;20042;-72
2023/01/09 01:38:52;;;;;;;0.40;0.40;;;;;;;12.44;69.00;99403.91;5014354;28;20176;-72
2023/01/09 01:41:28;;;;;;;0.40;0.30;;;;;;;12.17;69.71;99406.06;5013978;28;20038;-72
2023/01/09 01:44:44;;;;;;;0.30;0.30;;;;;;;12.97;66.99;99395.09;5014338;28;20084;-73
2023/01/09 01:47:09;;;;;;;0.30;0.30;;;;;;;12.07;69.71;99404.19;5014464;28;20042;-71
2023/01/09 01:49:35;;;;;;;0.30;0.30;;;;;;;12.05;70.33;99398.28;5014180;28;20419;-72
2023/01/09 01:52:00;;;;;;;0.30;0.30;;;;;;;11.81;69.91;99418.72;5014803;28;20037;-72
2023/01/09 01:54:29;;;;;;;0.22;0.22;;;;;;;11.78;70.21;99418.44;5014502;28;20033;-72
2023/01/09 01:57:00;;;;;;;0.20;0.20;;;;;;;12.54;67.31;99419.25;5014115;28;20041;-71
2023/01/09 01:59:32;;;;;;;0.28;0.28;;;;;;;12.71;67.22;99420.56;5014231;28;20038;-72
2023/01/09 02:02:01;;;;;;;0.30;0.30;;;;;;;12.47;67.62;99419.53;5014018;28;20033;-71
2023/01/09 02:04:29;;;;;;;0.50;0.50;;;;;;;12.78;66.18;99412.16;5025786;28;20042;-72
2023/01/09 02:06:55;;;;;;;0.22;0.22;;;;;;;13.33;64.63;99414.66;5017602;28;20065;-72
2023/01/09 02:09:22;;;;;;;0.30;0.30;;;;;;;12.67;66.79;99422.19;5014570;28;20042;-71
2023/01/09 02:11:51;;;;;;;0.20;0.20;;;;;;;12.51;67.15;99417.09;5013888;28;20430;-71
2023/01/09 02:14:19;;;;;;;0.20;0.20;;;;;;;12.53;66.88;99417.63;5014059;28;20566;-70
2023/01/09 02:17:05;;;;;;;0.38;0.38;;;;;;;11.69;69.89;99417.38;5013903;28;20046;-71
2023/01/09 02:20:02;;;;;;;0.38;0.38;;;;;;;12.35;68.55;99422.50;5014105;28;20379;-72
2023/01/09 02:22:51;;;;;;;0.20;0.20;;;;;;;12.47;67.89;99416.00;5013970;28;20061;-72
2023/01/09 02:25:49;;;;;;;0.30;0.30;;;;;;;12.06;68.54;99413.38;5013730;28;20448;-72
2023/01/09 02:28:33;;;;;;;0.30;0.30;;;;;;;12.42;67.35;99416.84;4955461;28;20073;-72
2023/01/09 02:31:26;;;;;;;0.40;0.40;;;;;;;11.98;68.46;99411.22;4972178;28;20065;-72
2023/01/09 02:34:06;;;;;;;0.30;0.30;;;;;;;11.93;69.29;99413.88;4972472;28;20054;-71
2023/01/09 02:36:50;;;;;;;0.30;0.30;;;;;;;11.68;69.51;99410.34;4956157;28;20483;-71
2023/01/09 02:39:24;;;;;;;0.40;0.40;;;;;;;12.11;67.82;99412.53;4952818;28;20039;-70
2023/01/09 02:42:04;;;;;;;0.40;0.40;;;;;;;11.94;68.87;99420.91;4952251;28;20053;-72
2023/01/09 02:44:34;;;;;;;0.20;0.20;;;;;;;12.07;68.37;99424.91;4952875;28;20440;-73
2023/01/09 02:47:07;;;;;;;0.30;0.30;;;;;;;12.00;68.16;99421.69;4953158;28;20046;-71
2023/01/09 02:49:36;;;;;;;0.30;0.30;;;;;;;11.75;69.19;99424.38;4953019;28;20126;-72
2023/01/09 02:52:35;;;;;;;0.30;0.30;;;;;;;11.81;69.01;99432.16;4952815;28;20066;-72
2023/01/09 02:55:09;;;;;;;0.30;0.30;;;;;;;11.56;69.91;99431.31;4952390;28;20031;-72
2023/01/09 02:57:48;;;;;;;0.40;0.40;;;;;;;11.95;68.54;99432.47;4952344;29;20070;-73
2023/01/09 03:00:23;;;;;;;0.50;0.50;;;;;;;11.57;69.33;99431.03;4936706;29;20047;-72
2023/01/09 03:03:03;;;;;;;0.40;0.40;;;;;;;11.75;69.50;99437.84;4952239;28;20054;-71
2023/01/09 03:05:35;;;;;;;0.28;0.28;;;;;;;11.99;68.55;99433.56;4974726;28;20058;-72
2023/01/09 03:08:26;;;;;;;0.30;0.30;;;;;;;11.83;68.54;99434.63;4976166;28;20101;-72
2023/01/09 03:10:59;;;;;;;;;;;;;;;11.90;68.39;99435.97;4943041;29;20039;-71
2023/01/09 03:13:28;;;;;;;0.30;0.25;;;;;;;11.65;68.47;99427.84;4952178;29;19919;-72
2023/01/09 03:15:56;;;;;;;0.30;0.30;;;;;;;12.04;67.31;99426.28;4952012;29;20519;-71
2023/01/09 03:18:26;;;;;;;0.40;0.40;;;;;;;11.70;68.91;99418.97;4952458;29;20031;-72
2023/01/09 03:20:53;;;;;;;0.40;0.40;;;;;;;12.21;66.26;99417.91;4942599;29;20536;-71
2023/01/09 03:23:19;;;;;;;0.45;0.45;;;;;;;11.67;68.39;99425.72;4932664;29;20518;-72
2023/01/09 03:25:44;;;;;;;0.30;0.30;;;;;;;11.22;70.34;99422.88;4932604;29;20046;-72
2023/01/09 03:28:28;;;;;;;0.35;0.35;;;;;;;11.90;68.43;99422.50;4932240;29;20047;-72
2023/01/09 03:30:54;;;;;;;0.28;0.28;;;;;;;11.82;68.48;99425.72;4932564;29;20131;-71
2023/01/09 03:33:19;;;;;;;0.32;0.32;;;;;;;11.93;67.35;99419.25;4932991;29;20039;-72
2023/01/09 03:35:45;;;;;;;0.47;0.47;;;;;;;11.62;68.73;99424.84;4932539;29;20188;-71
2023/01/09 03:38:10;;;;;;;0.60;0.60;;;;;;;12.04;67.22;99423.59;4932021;29;20194;-72
2023/01/09 03:40:36;;;;;;;0.50;0.50;;;;;;;11.99;67.24;99423.56;4932003;29;20044;-72
2023/01/09 03:43:01;;;;;;;0.65;0.65;;;;;;;12.24;66.04;99426.25;4931865;29;20040;-71
2023/01/09 03:45:27;;;;;;;0.40;0.40;;;;;;;12.16;66.32;99426.00;4932087;29;20174;-72
2023/01/09 03:47:52;;;;;;;0.40;0.40;;;;;;;11.79;66.91;99438.91;4950669;28;20047;-71
2023/01/09 03:50:18;;;;;;;0.30;0.30;;;;;;;11.76;68.63;99431.34;4972691;28;20110;-71
2023/01/09 03:52:43;;;;;;;0.40;0.40;;;;;;;11.91;67.31;99437.56;4973270;28;20129;-72
2023/01/09 03:55:09;;;;;;;0.38;0.38;;;;;;;11.85;67.75;99435.16;4972856;28;20062;-72
2023/01/09 03:57:34;;;;;;;0.22;0.22;;;;;;;12.12;66.39;99435.72;4972533;28;20549;-72
2023/01/09 03:59:59;;;;;;;0.30;0.30;;;;;;;11.84;67.05;99444.28;4973266;28;20053;-71
2023/01/09 04:02:25;;;;;;;0.40;0.40;;;;;;;12.22;66.24;99444.59;4973021;28;20065;-71
2023/01/09 04:04:50;;;;;;;0.47;0.47;;;;;;;12.30;64.97;99446.72;4973015;28;20050;-72
2023/01/09 04:07:15;;;;;;;0.40;0.40;;;;;;;11.75;67.30;99445.91;4987823;28;20035;-71
2023/01/09 04:09:41;;;;;;;0.20;0.20;;;;;;;11.86;67.65;99445.66;4973321;28;20031;-72
2023/01/09 04:12:06;;;;;;;0.43;0.43;;;;;;;12.50;64.98;99440.50;4991962;28;20039;-71
2023/01/09 04:14:32;;;;;;;0.30;0.30;;;;;;;12.18;65.35;99438.13;4991901;28;20043;-70
2023/01/09 04:16:57;;;;;;;0.30;0.30;;;;;;;11.88;66.18;99431.91;4991935;28;20125;-72
2023/01/09 04:19:22;;;;;;;0.50;0.50;;;;;;;12.45;65.18;99439.72;4991512;28;20124;-71
2023/01/09 04:21:48;;;;;;;0.47;0.47;;;;;;;12.11;65.05;99444.84;5023665;28;20097;-72
2023/01/09 04:24:13;;;;;;;0.30;0.30;;;;;;;12.38;64.95;99442.72;5011871;28;20125;-71
2023/01/09 04:26:38;;;;;;;0.30;0.30;;;;;;;12.30;64.49;99440.56;5011397;28;20340;-72
2023/01/09 04:29:04;;;;;;;0.55;0.55;;;;;;;12.21;64.30;99444.84;5011163;28;20061;-71
2023/01/09 04:31:29;;;;;;;0.40;0.40;;;;;;;12.05;65.22;99449.44;4993401;28;20113;-71
2023/01/09 04:33:54;;;;;;;0.40;0.40;;;;;;;11.51;67.70;99450.94;5011148;28;20037;-71
2023/01/09 04:36:20;;;;;;;0.30;0.30;;;;;;;12.05;65.81;99454.81;5011788;28;20021;-70
2023/01/09 04:38:45;;;;;;;0.30;0.30;;;;;;;12.26;64.40;99452.94;5025880;28;20045;-71
2023/01/09 04:41:47;;;;;;;0.50;0.50;;;;;;;11.98;64.34;99459.66;5011509;28;20125;-71
2023/01/09 04:43:56;;;;;;;0.32;0.32;;;;;;;12.25;63.86;99462.09;5011015;28;20101;-72
2023/01/09 04:46:21;;;;;;;0.40;0.40;;;;;;;12.10;64.05;99462.09;5010873;28;20034;-70
2023/01/09 04:48:47;;;;;;;0.50;0.50;;;;;;;12.53;62.53;99474.19;5011391;28;20502;-72
2023/01/09 04:51:12;;;;;;;0.40;0.40;;;;;;;12.25;63.11;99467.47;5011369;28;20040;-73
2023/01/09 04:53:37;;;;;;;0.40;0.40;;;;;;;11.92;64.72;99478.75;5011563;28;20093;-72
2023/01/09 04:56:03;;;;;;;0.50;0.40;;;;;;;12.19;63.44;99471.25;5011445;28;20034;-71
2023/01/09 04:58:28;;;;;;;0.55;0.55;;;;;;;12.15;63.32;99470.97;5011430;28;20026;-71
2023/01/09 05:00:53;;;;;;;0.30;0.30;;;;;;;12.10;63.57;99473.69;5009850;28;20061;-71
2023/01/09 05:03:19;;;;;;;0.40;0.40;;;;;;;11.61;65.94;99477.06;5010700;28;20105;-71
2023/01/09 05:05:44;;;;;;;0.35;0.35;;;;;;;11.73;65.42;99477.66;5010305;28;20125;-71
2023/01/09 05:08:09;;;;;;;0.40;0.40;;;;;;;12.14;63.98;99480.16;5010881;28;20084;-71
2023/01/09 05:10:35;;;;;;;0.40;0.40;;;;;;;11.59;66.24;99480.00;5012903;28;20133;-71
2023/01/09 05:13:02;;;;;;;0.40;0.40;;;;;;;11.46;66.58;99481.31;5014257;28;20096;-71
2023/01/09 05:15:29;;;;;;;0.30;0.30;;;;;;;11.30;67.40;99485.00;5015051;28;20108;-70
2023/01/09 05:17:55;;;;;;;0.30;0.30;;;;;;;11.25;67.14;99485.00;5014751;28;20076;-71
2023/01/09 05:20:20;;;;;;;0.32;0.30;;;;;;;11.34;66.56;99491.47;5009350;28;20113;-72
2023/01/09 05:22:45;;;;;;;0.40;0.40;;;;;;;11.54;66.09;99479.19;4995741;28;20475;-71
2023/01/09 05:25:11;;;;;;;0.40;0.40;;;;;;;12.14;64.15;99482.84;4996456;28;20294;-70
2023/01/09 05:27:36;;;;;;;0.30;0.30;;;;;;;12.14;63.83;99474.75;5014441;28;20034;-70
2023/01/09 05:30:02;;;;;;;0.40;0.40;;;;;;;12.09;64.17;99468.53;5008527;28;20034;-71
2023/01/09 05:32:27;;;;;;;0.30;0.30;;;;;;;11.76;65.72;99480.63;4994974;28;20042;-70
2023/01/09 05:34:53;;;;;;;0.30;0.30;;;;;;;12.01;64.11;99482.56;4994813;28;20039;-70
2023/01/09 05:37:18;;;;;;;0.25;0.25;;;;;;;11.58;65.77;99470.31;5010957;28;20097;-71
2023/01/09 05:39:43;;;;;;;0.43;0.43;;;;;;;11.90;64.81;99472.84;5012896;28;20038;-70
2023/01/09 05:42:09;;;;;;;0.20;0.20;;;;;;;11.27;67.24;99479.34;5014294;28;20404;-71
2023/01/09 05:44:35;;;;;;;0.50;0.50;;;;;;;12.00;64.31;99475.53;5014095;28;20045;-70
2023/01/09 05:47:01;;;;;;;0.60;0.60;;;;;;;11.74;65.11;99472.00;5013901;28;20034;-71
2023/01/09 05:49:26;;;;;;;0.43;0.40;;;;;;;11.76;65.46;99471.72;5002342;28;20060;-70
2023/01/09 05:51:52;;;;;;;0.25;0.25;;;;;;;11.44;66.14;99467.31;4995082;28;20073;-70
2023/01/09 05:54:17;;;;;;;0.20;0.20;;;;;;;11.91;64.31;99477.94;4994413;28;20277;-70
2023/01/09 05:56:42;;;;;;;0.30;0.30;;;;;;;12.13;63.39;99467.75;4994254;28;20050;-70
2023/01/09 05:59:08;;;;;;;0.32;0.32;;;;;;;11.94;63.47;99474.72;4994203;28;20041;-71
2023/01/09 06:01:33;;;;;;;0.35;0.35;;;;;;;11.44;65.44;99467.31;4991755;28;20046;-70
2023/01/09 06:03:59;;;;;;;0.30;0.30;;;;;;;11.53;66.34;99473.00;4993648;28;20037;-70
2023/01/09 06:06:24;;;;;;;0.40;0.40;;;;;;;12.20;64.28;99476.38;4993952;28;20034;-71
2023/01/09 06:08:50;;;;;;;0.50;0.50;;;;;;;11.21;66.82;99491.16;4993385;28;20045;-70
2023/01/09 06:11:15;;;;;;;0.30;0.30;;;;;;;11.30;66.98;99490.38;4992272;28;20509;-71
2023/01/09 06:13:41;;;;;;;0.40;0.40;;;;;;;11.84;66.07;99490.88;4993687;28;20065;-71
2023/01/09 06:16:06;;;;;;;0.35;0.35;;;;;;;11.93;65.19;99493.84;4993460;28;20022;-71
2023/01/09 06:18:32;;;;;;;0.38;0.38;;;;;;;11.76;65.82;99487.88;4976417;28;20050;-71
2023/01/09 06:20:57;;;;;;;0.38;0.38;;;;;;;12.20;64.28;99492.53;5003199;28;20453;-70
2023/01/09 06:23:22;;;;;;;0.50;0.50;;;;;;;12.05;65.13;99494.38;5013017;28;20037;-71
2023/01/09 06:25:48;;;;;;;0.40;0.40;;;;;;;12.58;63.82;99485.78;5012615;28;20038;-71
2023/01/09 06:28:13;;;;;;;0.40;0.40;;;;;;;13.01;62.41;99484.38;5012961;28;20550;-70
2023/01/09 06:30:38;;;;;;;0.30;0.30;;;;;;;12.21;63.18;99475.28;5013321;28;20516;-71
2023/01/09 06:33:04;;;;;;;0.30;0.30;;;;;;;12.22;64.37;99481.50;5012839;28;20407;-71
2023/01/09 06:35:29;;;;;;;0.47;0.47;;;;;;;12.60;63.73;99488.22;5012315;28;20117;-71
2023/01/09 06:37:55;;;;;;;0.45;0.45;;;;;;;12.94;62.46;99478.44;5012811;28;20045;-70
2023/01/09 06:40:20;;;;;;;0.43;0.43;;;;;;;12.48;63.52;99475.00;5007865;28;20078;-72
2023/01/09 06:42:47;;;;;;;0.30;0.30;;;;;;;12.58;63.79;99476.91;5011765;28;20034;-71
2023/01/09 06:45:13;;;;;;;0.30;0.30;;;;;;;12.56;64.19;99476.38;5011784;28;20296;-71
2023/01/09 06:47:38;;;;;;;0.40;0.40;;;;;;;12.51;64.40;99484.44;5012838;28;20057;-71
2023/01/09 06:50:04;;;;;;;0.55;0.55;;;;;;;13.02;62.85;99481.41;5011795;28;20498;-71
2023/01/09 06:52:30;;;;;;;0.43;0.43;;;;;;;12.16;66.08;99482.56;5011393;28;20117;-71
2023/01/09 06:54:55;;;;;;;0.30;0.30;;;;;;;12.24;65.24;99480.13;5013099;28;20545;-72
2023/01/09 06:57:20;;;;;;;0.32;0.32;;;;;;;12.09;66.30;99485.50;5013484;28;20033;-72
2023/01/09 06:59:46;;;;;;;0.30;0.30;;;;;;;12.92;64.17;99491.38;5012806;28;20045;-73
2023/01/09 07:02:17;;;;;;;0.25;0.25;;;;;;;12.35;64.72;99484.47;5012790;28;20560;-73
2023/01/09 07:04:43;;;;;;;0.45;0.45;;;;;;;12.98;63.23;99493.00;5011269;28;20038;-71
2023/01/09 07:07:08;;;;;;;0.30;0.30;;;;;;;12.82;64.00;99491.41;5012946;28;20029;-74
2023/01/09 07:09:33;;;;;;;0.38;0.38;;;;;;;13.40;62.16;99490.75;5013172;28;20045;-72
2023/01/09 07:11:59;;;;;;;0.40;0.40;;;;;;;13.49;61.71;99488.25;5012686;28;20430;-72
2023/01/09 07:14:24;;;;;;;0.30;0.30;;;;;;;13.13;62.43;99488.41;5012651;28;20080;-72
2023/01/09 07:16:49;;;;;;;0.43;0.43;;;;;;;13.54;61.59;99497.13;5010501;28;20060;-73
2023/01/09 07:19:15;;;;;;;0.30;0.30;;;;;;;13.62;60.90;99488.47;5012633;28;20389;-73
2023/01/09 07:21:40;;;;;;;0.40;0.40;;;;;;;13.43;61.05;99498.28;5013004;28;20481;-71
2023/01/09 07:24:06;;;;;;;0.30;0.30;;;;;;;13.70;61.33;99492.50;5011004;28;20043;-73
2023/01/09 07:26:31;;;;;;;0.40;0.40;;;;;;;13.32;61.92;99499.41;5011942;28;20032;-75
2023/01/09 07:28:56;;;;;;;0.20;0.20;;;;;;;13.32;62.35;99494.00;5011559;28;20329;-73
2023/01/09 07:31:22;;;;;;;0.32;0.32;;;;;;;13.55;61.36;99495.25;5012063;28;20398;-74
2023/01/09 07:33:47;;;;;;;0.40;0.40;;;;;;;13.14;61.94;99489.22;5011627;28;20488;-73
2023/01/09 07:36:13;;;;;;;0.30;0.30;;;;;;;13.48;61.78;99489.34;4994817;28;20034;-73
2023/01/09 07:38:38;;;;;;;0.38;0.38;;;;;;;13.02;63.05;99491.38;5012050;28;20101;-73
2023/01/09 07:41:04;;;;;;;0.40;0.40;;;;;;;13.17;63.38;99492.16;5009872;28;20034;-73
2023/01/09 07:43:29;;;;;;;0.20;0.20;;;;;;;13.35;62.84;99504.25;5011174;28;20561;-73
2023/01/09 07:45:55;;;;;;;0.50;0.50;;;;;;;13.40;62.52;99498.03;5011656;28;20022;-74
2023/01/09 07:48:20;;;;;;;0.20;0.20;;;;;;;13.28;63.08;99505.63;5012760;28;20389;-73
2023/01/09 07:50:45;;;;;;;0.52;0.52;;;;;;;13.24;62.53;99505.38;5011235;28;20141;-73
2023/01/09 07:53:11;;;;;;;0.47;0.47;;;;;;;13.71;61.38;99507.59;5023093;28;20041;-73
2023/01/09 07:55:36;;;;;;;0.40;0.40;;;;;;;13.63;61.51;99510.88;5025341;28;20030;-73
2023/01/09 07:58:02;;;;;;;0.20;0.20;;;;;;;13.62;61.86;99510.06;4987301;28;20052;-73
2023/01/09 08:00:27;;;;;;;0.50;0.50;;;;;;;13.71;61.29;99504.91;5010364;28;20084;-73
2023/01/09 08:02:53;;;;;;;0.20;0.20;;;;;;;12.89;63.83;99500.81;5007442;28;20025;-74
2023/01/09 08:05:19;;;;;;;0.30;0.30;;;;;;;13.52;62.24;99506.63;5008064;28;20030;-74
2023/01/09 08:07:44;;;;;;;0.32;0.32;;;;;;;13.63;61.83;99505.47;5008019;28;20030;-74
2023/01/09 08:10:11;;;;;;;0.40;0.40;;;;;;;13.45;62.54;99506.91;5007463;28;20576;-72
2023/01/09 08:12:36;;;;;;;0.40;0.40;;;;;;;13.47;62.65;99510.13;5006365;28;20036;-74
2023/01/09 08:15:02;;;;;;;0.40;0.40;;;;;;;13.69;62.14;99507.88;5012638;28;20030;-76
2023/01/09 08:17:27;;;;;;;0.30;0.30;;;;;;;13.74;61.74;99507.03;5011644;28;20034;-75
2023/01/09 08:19:53;;;;;;;0.40;0.40;;;;;;;13.56;62.73;99505.75;5011858;28;20442;-72
2023/01/09 08:22:18;;;;;;;0.40;0.40;;;;;;;13.79;61.51;99507.00;5011070;28;20964;-74
2023/01/09 08:24:43;;;;;;;0.28;0.28;;;;;;;13.40;63.30;99503.41;5011084;28;20057;-73
2023/01/09 08:27:09;;;;;;;0.32;0.32;;;;;;;13.50;62.88;99504.19;5011248;28;20087;-74
2023/01/09 08:29:34;;;;;;;0.47;0.47;;;;;;;13.37;63.73;99501.25;5011187;28;20053;-72
2023/01/09 08:31:59;;;;;;;0.40;0.40;;;;;;;13.40;63.78;99498.84;5011447;28;20042;-73
2023/01/09 08:34:25;;;;;;;0.40;0.40;;;;;;;12.89;64.63;99500.03;5011451;28;20509;-73
2023/01/09 08:36:52;;;;;;;0.30;0.30;;;;;;;13.25;63.97;99500.78;5012204;28;20033;-74
2023/01/09 08:39:17;;;;;;;0.30;0.30;;;;;;;13.74;62.65;99501.63;5011402;28;20505;-71
2023/01/09 08:47:15;;;;;;;0.32;0.32;;;;;;;13.48;63.86;99510.94;5011292;28;20089;-72
2023/01/09 08:49:40;;;;;;;0.22;0.22;;;;;;;13.42;64.20;99498.56;5010714;28;20056;-73
2023/01/09 08:52:06;;;;;;;0.40;0.40;;;;;;;13.26;65.04;99505.91;5011437;28;20394;-72
2023/01/09 08:54:32;;;;;;;0.43;0.43;;;;;;;13.71;63.31;99500.31;5011658;28;20046;-69
2023/01/09 08:56:57;;;;;;;0.40;0.40;;;;;;;13.16;65.40;99501.34;5011199;28;20068;-71
2023/01/09 08:59:22;;;;;;;0.55;0.55;;;;;;;13.88;63.06;99499.94;5010902;28;20455;-69
2023/01/09 09:01:48;;;;;;;0.40;0.40;;;;;;;13.89;62.41;99505.06;5010847;28;20034;-70
2023/01/09 09:04:13;;;;;;;0.40;0.40;;;;;;;14.05;62.56;99513.88;5010919;28;20042;-71
2023/01/09 09:06:39;;;;;;;0.30;0.30;;;;;;;13.68;63.57;99503.56;5010994;28;20042;-70
2023/01/09 09:09:05;;;;;;;0.40;0.40;;;;;;;13.57;64.62;99511.97;5010770;28;20098;-70
2023/01/09 09:11:32;;;;;;;0.30;0.30;;;;;;;13.68;63.52;99514.34;5010630;28;20113;-70
2023/01/09 09:13:57;;;;;;;0.40;0.40;;;;;;;13.72;64.10;99511.91;5011252;28;20036;-70
2023/01/09 09:16:24;;;;;;;0.22;0.22;;;;;;;13.41;64.82;99510.41;5007186;28;20029;-71
2023/01/09 09:18:50;;;;;;;0.35;0.35;;;;;;;13.56;64.24;99513.06;5008084;28;20474;-71
2023/01/09 09:21:15;;;;;;;0.30;0.30;;;;;;;13.52;64.08;99517.41;5026231;28;20045;-71
2023/01/09 09:23:41;;;;;;;0.20;0.20;;;;;;;13.66;64.23;99515.72;5026357;28;20045;-70
2023/01/09 09:26:06;;;;;;;0.20;0.20;;;;;;;13.01;65.40;99517.53;5018156;28;20042;-69
2023/01/09 09:28:31;;;;;;;0.20;0.20;;;;;;;12.82;67.74;99521.06;5006362;28;20502;-70
2023/01/09 09:30:57;;;;;;;0.30;0.30;;;;;;;12.79;67.53;99525.13;5007022;28;20022;-70
2023/01/09 09:33:22;;;;;;;0.40;0.40;;;;;;;12.88;68.31;99520.78;5026855;28;20060;-69
2023/01/09 09:35:47;;;;;;;0.43;0.43;;;;;;;13.70;64.24;99512.19;5026010;28;20029;-71
2023/01/09 09:38:13;;;;;;;0.40;0.40;;;;;;;13.16;65.89;99519.41;5027078;28;20037;-70
2023/01/09 09:41:06;;;;;;;0.30;0.30;;;;;;;13.23;67.22;99521.84;5025763;28;20544;-70
2023/01/09 09:46:51;;;;;;;0.40;0.40;;;;;;;12.94;67.38;99529.66;5007182;28;20061;-71
2023/01/09 09:49:45;;;;;;;0.30;0.30;;;;;;;12.74;68.50;99538.59;5007015;28;20046;-71
2023/01/09 09:52:28;;;;;;;0.20;0.20;;;;;;;12.61;69.09;99546.41;5006079;28;20041;-70
2023/01/09 09:54:57;;;;;;;0.20;0.20;;;;;;;12.45;68.44;99544.78;5006529;28;20121;-68
2023/01/09 09:57:35;;;;;;;0.38;0.38;;;;;;;13.23;66.96;99548.81;5010983;28;20038;-70
2023/01/09 10:00:04;;;;;;;0.40;0.40;;;;;;;13.04;67.41;99551.25;5013433;28;20502;-68
2023/01/09 10:02:43;;;;;;;0.30;0.30;;;;;;;13.07;67.51;99561.53;5013645;28;20066;-69
2023/01/09 10:05:34;;;;;;;0.20;0.20;;;;;;;13.07;67.11;99567.69;5013807;28;20065;-70
2023/01/09 10:08:23;;;;;;;0.43;0.43;;;;;;;13.52;65.36;99576.78;4933006;29;20119;-68
2023/01/09 10:10:53;;;;;;;0.30;0.30;;;;;;;13.19;67.39;99573.63;4919889;29;20361;-70
2023/01/09 10:16:52;;;;;;;0.40;0.40;;;;;;;13.36;67.40;99591.41;4933105;29;20048;-70
2023/01/09 10:19:51;;;;;;;0.20;0.20;;;;;;;13.28;66.87;99589.25;4932937;29;20047;-70
2023/01/09 10:22:32;;;;;;;0.30;0.30;;;;;;;13.05;67.51;99596.06;4933223;29;20035;-70
2023/01/09 10:25:26;;;;;;;0.22;0.22;;;;;;;12.51;70.57;99605.69;4933221;28;20087;-70
2023/01/09 10:28:29;;;;;;;0.30;0.30;;;;;;;12.52;70.78;99605.41;4933463;29;20055;-71
2023/01/09 10:31:38;;;;;;;0.30;0.30;;;;;;;12.06;72.66;99609.09;4933127;29;20244;-70
2023/01/09 10:34:24;;;;;;;0.40;0.40;;;;;;;12.58;71.00;99619.72;4932507;29;20100;-69
2023/01/09 10:37:00;;;;;;;0.20;0.20;;;;;;;13.94;65.54;99618.47;4933328;29;20539;-69
2023/01/09 10:39:34;;;;;;;0.30;0.30;;;;;;;14.45;64.08;99629.84;4932804;29;20122;-69
2023/01/09 10:42:03;;;;;;;0.20;0.20;;;;;;;13.16;68.75;99635.41;4916892;29;20050;-68
2023/01/09 10:44:41;;;;;;;0.17;0.17;;;;;;;14.07;65.98;99646.78;4937941;29;20126;-69
2023/01/09 10:47:31;;;;;;;0.32;0.32;;;;;;;13.46;69.02;99648.88;4951833;28;20039;-69
2023/01/09 10:49:59;;;;;;;0.30;0.30;;;;;;;13.13;69.67;99652.13;4951638;29;20464;-70
2023/01/09 10:52:32;;;;;;;0.28;0.28;;;;;;;13.28;68.39;99652.13;4965357;28;20037;-69
2023/01/09 10:55:11;;;;;;;0.20;0.20;;;;;;;12.87;71.16;99659.38;5012759;28;20036;-70
2023/01/09 10:57:46;;;;;;;0.22;0.22;;;;;;;13.19;69.84;99662.63;5004164;28;20570;-70
2023/01/09 11:00:20;;;;;;;0.35;0.35;;;;;;;13.37;69.42;99666.66;5012681;28;20585;-70
2023/01/09 11:02:46;;;;;;;0.30;0.30;;;;;;;12.64;71.04;99667.19;5012691;28;20124;-70
2023/01/09 11:05:19;;;;;;;0.20;0.20;;;;;;;12.89;71.17;99675.28;5012608;28;20065;-70
2023/01/09 11:07:51;;;;;;;0.30;0.30;;;;;;;12.30;71.29;99675.69;5012540;28;20280;-70
2023/01/09 11:10:17;;;;;;;0.30;0.30;;;;;;;13.74;67.66;99671.72;5012669;28;20517;-69
2023/01/09 11:12:43;;;;;;;0.40;0.40;;;;;;;12.91;70.05;99673.91;5013018;28;20214;-69
2023/01/09 11:15:20;;;;;;;0.30;0.30;;;;;;;13.68;67.80;99680.94;5012309;28;20794;-71
2023/01/09 11:17:46;;;;;;;0.30;0.30;;;;;;;13.07;69.74;99682.88;5012560;28;20109;-69
2023/01/09 11:20:19;;;;;;;0.30;0.30;;;;;;;12.97;70.42;99686.34;5012089;28;20054;-72
2023/01/09 11:22:50;;;;;;;0.30;0.30;;;;;;;12.78;71.87;99695.22;5012085;28;20076;-71
2023/01/09 11:25:17;;;;;;;0.32;0.32;;;;;;;13.25;70.20;99697.72;5012142;28;20045;-69
2023/01/09 11:27:43;;;;;;;0.30;0.30;;;;;;;13.41;69.45;99696.63;5012508;28;20469;-70
2023/01/09 11:30:19;;;;;;;0.30;0.30;;;;;;;13.20;69.94;99693.13;5012041;28;20050;-69
2023/01/09 11:32:45;;;;;;;0.25;0.25;;;;;;;13.47;68.87;99695.53;5012160;28;20033;-69
2023/01/09 11:35:18;;;;;;;0.40;0.40;;;;;;;12.74;71.61;99699.50;4994067;28;20049;-70
2023/01/09 11:37:44;;;;;;;0.32;0.32;;;;;;;12.69;72.07;99704.91;5011891;28;20038;-71
2023/01/09 11:40:18;;;;;;;0.30;0.30;;;;;;;13.10;70.11;99709.31;5012039;28;20025;-69
2023/01/09 11:43:02;;;;;;;0.22;0.22;;;;;;;13.32;69.70;99712.56;5010988;28;20102;-71
2023/01/09 11:45:34;;;;;;;0.30;0.30;;;;;;;13.54;67.89;99721.16;4994103;28;20054;-70
2023/01/09 11:48:00;;;;;;;0.30;0.30;;;;;;;12.75;70.72;99722.72;5011471;28;20052;-71
2023/01/09 11:50:28;;;;;;;0.22;0.22;;;;;;;12.56;70.72;99741.25;5011863;28;20129;-71
2023/01/09 11:53:17;;;;;;;0.20;0.20;;;;;;;13.67;68.16;99741.41;5012010;28;20524;-70
2023/01/09 11:55:45;;;;;;;0.20;0.20;;;;;;;13.40;69.39;99739.00;4970102;28;20146;-70
2023/01/09 11:58:16;;;;;;;0.25;0.25;;;;;;;13.50;68.93;99733.59;4969889;28;20198;-70
2023/01/09 12:01:23;;;;;;;0.20;0.20;;;;;;;13.71;69.06;99737.88;4970362;28;20043;-70